Time;durP1;ratioP1;P1;durP2;ratioP2;P2;SDS_P1;SDS_P2;PMS_P1;PMS_P2;Temp;Humidity;BMP_temperature;BMP_pressure;BME280_temperature;BME280_humidity;BME280_pressure;Samples;Min_cycle;Max_cycle;Signal;HPM_P1;HPM_P2
2023/04/12 00:01:48;;;;;;;95.32;52.85;;;16.00;72.90;;;;;;4973224;28;89537;-46
2023/04/12 00:04:15;;;;;;;95.47;53.03;;;16.00;72.80;;;;;;4981019;28;90015;-51
2023/04/12 00:06:47;;;;;;;94.70;52.85;;;16.00;72.70;;;;;;4978519;28;90516;-55
2023/04/12 00:09:16;;;;;;;96.35;52.70;;;15.90;72.80;;;;;;4978683;28;89947;-52
2023/04/12 00:11:42;;;;;;;95.13;52.65;;;16.00;72.60;;;;;;4978962;28;89976;-52
2023/04/12 00:14:08;;;;;;;95.35;52.53;;;15.90;72.60;;;;;;4978576;28;89838;-46
2023/04/12 00:16:35;;;;;;;95.80;52.58;;;15.90;72.70;;;;;;4973077;28;91336;-46
2023/04/12 00:19:02;;;;;;;95.60;52.72;;;15.90;72.80;;;;;;4963281;28;92028;-47
2023/04/12 00:21:28;;;;;;;95.57;52.88;;;15.90;72.90;;;;;;4976926;28;89511;-52
2023/04/12 00:23:55;;;;;;;95.75;52.80;;;15.90;72.70;;;;;;4977008;28;92364;-52
2023/04/12 00:26:21;;;;;;;95.78;52.95;;;15.90;72.60;;;;;;4980959;28;90571;-51
2023/04/12 00:28:47;;;;;;;94.00;52.50;;;15.90;73.40;;;;;;4977084;28;89665;-53
2023/04/12 00:31:12;;;;;;;95.05;52.67;;;15.90;72.60;;;;;;4980598;28;91090;-50
2023/04/12 00:33:38;;;;;;;93.88;52.40;;;15.90;72.70;;;;;;4973322;28;90168;-49
2023/04/12 00:36:04;;;;;;;94.75;52.75;;;15.90;72.70;;;;;;4980119;28;90685;-50
2023/04/12 00:38:30;;;;;;;95.50;52.70;;;15.90;72.60;;;;;;4962342;28;90804;-52
2023/04/12 00:40:55;;;;;;;95.63;52.60;;;15.80;72.70;;;;;;4980642;28;89994;-55
2023/04/12 00:43:22;;;;;;;95.35;52.88;;;15.80;72.60;;;;;;4974851;28;90141;-52
2023/04/12 00:45:48;;;;;;;94.38;52.45;;;15.80;72.60;;;;;;4979737;28;89909;-50
2023/04/12 00:48:15;;;;;;;94.60;52.53;;;15.80;73.30;;;;;;4975895;28;89114;-54
2023/04/12 00:50:43;;;;;;;94.07;52.53;;;15.80;72.50;;;;;;4976749;28;91536;-49
2023/04/12 00:53:12;;;;;;;94.60;52.67;;;15.80;72.50;;;;;;4973157;28;89959;-43
2023/04/12 00:55:40;;;;;;;94.78;52.45;;;15.80;72.60;;;;;;4970684;28;93561;-50
2023/04/12 00:58:06;;;;;;;95.57;52.67;;;15.80;72.60;;;;;;4983155;28;89972;-52
2023/04/12 01:00:33;;;;;;;94.25;52.65;;;15.80;72.70;;;;;;4963225;28;90513;-55
2023/04/12 01:03:01;;;;;;;96.05;52.58;;;15.80;72.70;;;;;;4968920;28;90251;-51
2023/04/12 01:05:28;;;;;;;95.45;52.78;;;15.80;72.70;;;;;;4978810;28;89214;-53
2023/04/12 01:08:17;;;;;;;95.45;52.45;;;15.80;72.70;;;;;;4975729;28;89961;-52
2023/04/12 01:10:56;;;;;;;95.47;52.50;;;15.70;72.50;;;;;;4955818;28;89773;-54
2023/04/12 01:13:41;;;;;;;95.80;52.58;;;15.70;72.50;;;;;;4972631;28;90251;-55
2023/04/12 01:16:15;;;;;;;94.85;52.83;;;15.70;72.60;;;;;;4970514;28;90322;-50
2023/04/12 01:18:48;;;;;;;94.45;52.63;;;15.70;72.60;;;;;;4967852;28;89835;-48
2023/04/12 01:21:18;;;;;;;95.10;52.83;;;15.70;72.60;;;;;;4966576;28;91518;-50
2023/04/12 01:24:12;;;;;;;95.13;52.90;;;15.70;72.50;;;;;;4975386;28;89874;-54
2023/04/12 01:26:46;;;;;;;94.18;52.72;;;15.70;72.50;;;;;;4976425;28;90347;-49
2023/04/12 01:29:14;;;;;;;95.03;52.42;;;15.70;72.70;;;;;;4979290;28;90249;-53
2023/04/12 01:31:46;;;;;;;95.30;52.80;;;15.70;72.70;;;;;;4956240;28;89408;-50
2023/04/12 01:34:14;;;;;;;94.68;52.30;;;15.70;72.60;;;;;;4959203;28;89325;-53
2023/04/12 01:36:42;;;;;;;95.22;52.83;;;15.70;72.60;;;;;;4955815;28;90312;-51
2023/04/12 01:39:08;;;;;;;95.07;52.33;;;15.70;72.50;;;;;;4956599;28;88875;-51
2023/04/12 01:41:44;;;;;;;94.88;52.53;;;15.70;72.60;;;;;;4956661;28;92435;-54
2023/04/12 01:44:13;;;;;;;95.13;52.67;;;15.60;72.50;;;;;;4957430;28;90019;-55
2023/04/12 01:46:39;;;;;;;94.80;52.70;;;15.60;72.50;;;;;;4957273;28;91276;-51
2023/04/12 01:49:04;;;;;;;94.63;52.63;;;15.60;72.60;;;;;;4960851;28;89643;-55
2023/04/12 01:52:03;;;;;;;94.25;52.40;;;15.60;72.50;;;;;;4956168;28;94748;-46
2023/04/12 01:54:33;;;;;;;95.43;52.63;;;15.60;72.60;;;;;;4955199;28;89971;-55
2023/04/12 01:57:03;;;;;;;94.15;52.58;;;15.60;72.60;;;;;;4947059;28;91227;-49
2023/04/12 01:59:39;;;;;;;93.80;52.40;;;15.60;72.60;;;;;;4952906;28;91722;-51
2023/04/12 02:02:06;;;;;;;94.03;52.63;;;15.60;72.50;;;;;;4949702;28;90389;-47
2023/04/12 02:04:34;;;;;;;94.32;52.70;;;15.60;72.50;;;;;;4961038;28;89581;-55
2023/04/12 02:07:01;;;;;;;93.97;52.33;;;15.60;72.50;;;;;;4957761;28;91428;-43
2023/04/12 02:09:27;;;;;;;94.72;52.40;;;15.60;72.50;;;;;;4963628;28;90662;-50
2023/04/12 02:11:52;;;;;;;94.45;52.85;;;15.60;72.50;;;;;;4957856;28;92196;-52
2023/04/12 02:14:18;;;;;;;95.28;52.55;;;15.60;72.50;;;;;;4962517;28;89643;-50
2023/04/12 02:16:44;;;;;;;94.45;52.03;;;15.50;72.50;;;;;;4964288;28;89999;-43
2023/04/12 02:19:11;;;;;;;93.80;52.35;;;15.60;72.60;;;;;;4961358;28;89850;-53
2023/04/12 02:21:44;;;;;;;94.32;52.72;;;15.50;72.50;;;;;;4957281;28;91650;-45
2023/04/12 02:24:11;;;;;;;94.00;52.50;;;15.60;72.50;;;;;;4960833;28;90347;-55
2023/04/12 02:26:37;;;;;;;95.20;52.90;;;15.50;72.50;;;;;;4957325;28;90215;-55
2023/04/12 02:29:06;;;;;;;94.90;52.50;;;15.50;72.60;;;;;;4962826;28;89708;-50
2023/04/12 02:31:33;;;;;;;94.38;52.47;;;15.50;72.60;;;;;;4973819;28;89886;-52
2023/04/12 02:33:59;;;;;;;93.95;52.70;;;15.50;72.70;;;;;;4987648;28;91651;-53
2023/04/12 02:36:25;;;;;;;93.53;52.15;;;15.50;72.60;;;;;;4984403;28;90473;-52
2023/04/12 02:38:51;;;;;;;94.38;52.33;;;15.50;72.60;;;;;;4984375;28;90549;-46
2023/04/12 02:41:17;;;;;;;94.45;52.42;;;15.50;72.50;;;;;;4985466;28;90798;-49
2023/04/12 02:43:43;;;;;;;93.97;52.47;;;15.50;72.60;;;;;;4981274;28;90221;-53
2023/04/12 02:46:09;;;;;;;95.30;52.30;;;15.50;72.70;;;;;;4964788;28;89645;-53
2023/04/12 02:48:35;;;;;;;94.25;52.25;;;15.50;72.60;;;;;;4984019;28;89724;-56
2023/04/12 02:51:01;;;;;;;94.38;52.47;;;15.50;72.60;;;;;;4983337;28;95054;-52
2023/04/12 02:53:26;;;;;;;94.70;52.58;;;15.50;72.50;;;;;;4983693;28;89702;-55
2023/04/12 02:55:52;;;;;;;93.35;52.15;;;15.50;72.60;;;;;;4987045;28;91181;-52
2023/04/12 02:58:18;;;;;;;93.38;52.17;;;15.50;72.70;;;;;;4983845;28;91504;-56
2023/04/12 03:00:44;;;;;;;94.88;52.65;;;15.50;72.70;;;;;;4964765;28;90793;-55
2023/04/12 03:03:10;;;;;;;94.13;52.28;;;15.50;72.60;;;;;;4979764;28;90081;-55
2023/04/12 03:05:36;;;;;;;95.28;52.50;;;15.50;72.60;;;;;;4979578;28;90879;-54
2023/04/12 03:08:02;;;;;;;94.63;52.80;;;15.40;72.60;;;;;;4979353;28;89965;-48
2023/04/12 03:10:28;;;;;;;94.63;52.55;;;15.40;72.60;;;;;;4982817;28;95231;-45
2023/04/12 03:12:53;;;;;;;94.07;52.78;;;15.50;72.60;;;;;;4977268;28;90977;-54
2023/04/12 03:15:22;;;;;;;93.65;52.05;;;15.40;72.50;;;;;;4978351;28;90647;-53
2023/04/12 03:17:47;;;;;;;93.95;52.35;;;15.40;72.50;;;;;;4978113;28;89067;-55
2023/04/12 03:20:13;;;;;;;94.80;52.10;;;15.40;72.40;;;;;;4981388;28;89731;-54
2023/04/12 03:22:39;;;;;;;93.72;52.47;;;15.40;72.30;;;;;;4979996;28;89525;-51
2023/04/12 03:25:05;;;;;;;94.15;52.40;;;15.40;72.30;;;;;;4985905;28;90677;-49
2023/04/12 03:27:31;;;;;;;93.70;52.47;;;15.40;72.50;;;;;;4978497;28;94299;-45
2023/04/12 03:29:57;;;;;;;93.80;52.47;;;15.40;72.50;;;;;;4975689;28;90059;-55
2023/04/12 03:32:23;;;;;;;93.65;52.20;;;15.40;72.50;;;;;;4981641;28;89979;-48
2023/04/12 03:34:49;;;;;;;94.55;52.80;;;15.40;72.30;;;;;;4962941;28;89547;-55
2023/04/12 03:37:15;;;;;;;94.28;52.35;;;15.30;72.50;;;;;;4978087;28;90598;-56
2023/04/12 03:39:43;;;;;;;93.95;52.50;;;15.30;72.30;;;;;;4982073;28;90547;-47
2023/04/12 03:42:09;;;;;;;94.97;52.45;;;15.40;72.50;;;;;;4977350;28;94388;-49
2023/04/12 03:44:35;;;;;;;94.43;52.55;;;15.40;72.40;;;;;;4977323;28;91796;-53
2023/04/12 03:47:00;;;;;;;93.05;52.20;;;15.40;72.40;;;;;;4972494;28;90032;-43
2023/04/12 03:49:26;;;;;;;93.97;52.40;;;15.30;72.30;;;;;;4984874;28;90949;-56
2023/04/12 03:51:52;;;;;;;94.88;52.40;;;15.40;72.40;;;;;;4958695;28;89716;-53
2023/04/12 03:54:17;;;;;;;93.32;52.38;;;15.40;72.50;;;;;;4971756;28;92414;-53
2023/04/12 03:56:43;;;;;;;95.32;52.67;;;15.30;72.30;;;;;;4978344;28;89867;-50
2023/04/12 03:59:09;;;;;;;93.75;52.70;;;15.30;72.30;;;;;;4980415;28;90221;-51
2023/04/12 04:01:35;;;;;;;94.25;52.70;;;15.30;72.40;;;;;;4979132;28;89846;-48
2023/04/12 04:04:02;;;;;;;94.72;52.25;;;15.30;72.40;;;;;;4978628;28;91202;-46
2023/04/12 04:06:28;;;;;;;93.55;52.40;;;15.30;72.30;;;;;;4976439;28;90904;-53
2023/04/12 04:08:55;;;;;;;94.90;52.85;;;15.30;72.30;;;;;;4981282;28;89833;-54
2023/04/12 04:11:22;;;;;;;94.97;52.25;;;15.30;72.40;;;;;;4977987;28;89909;-52
2023/04/12 04:13:48;;;;;;;93.75;52.40;;;15.30;72.30;;;;;;4963706;28;90779;-48
2023/04/12 04:16:13;;;;;;;93.57;52.05;;;15.30;72.40;;;;;;4981938;28;89561;-54
2023/04/12 04:18:39;;;;;;;94.30;52.40;;;15.30;72.30;;;;;;4969993;28;90365;-55
2023/04/12 04:21:06;;;;;;;93.80;52.28;;;15.30;72.10;;;;;;4975520;28;90992;-49
2023/04/12 04:23:37;;;;;;;94.63;52.53;;;15.20;72.20;;;;;;4979686;28;89601;-48
2023/04/12 04:26:05;;;;;;;93.60;52.25;;;15.30;72.30;;;;;;4978197;28;90155;-44
2023/04/12 04:28:32;;;;;;;94.05;52.45;;;15.20;72.00;;;;;;4981224;28;89759;-48
2023/04/12 04:31:04;;;;;;;93.43;52.15;;;15.30;72.00;;;;;;4972437;28;89280;-51
2023/04/12 04:33:30;;;;;;;94.70;52.20;;;15.20;72.10;;;;;;4977232;28;89678;-51
2023/04/12 04:35:56;;;;;;;93.80;52.35;;;15.20;72.10;;;;;;4975596;28;89636;-53
2023/04/12 04:38:24;;;;;;;96.57;52.30;;;15.20;72.20;;;;;;4977881;28;91703;-54
2023/04/12 04:40:54;;;;;;;94.43;52.45;;;15.20;72.20;;;;;;4980253;28;89860;-47
2023/04/12 04:43:20;;;;;;;96.15;52.72;;;15.20;72.50;;;;;;4981236;28;89922;-53
2023/04/12 04:45:49;;;;;;;93.78;52.03;;;15.20;72.50;;;;;;4984400;28;89541;-53
2023/04/12 04:48:15;;;;;;;93.43;52.05;;;15.20;72.50;;;;;;4978487;28;89394;-51
2023/04/12 04:50:41;;;;;;;95.13;52.20;;;15.20;72.70;;;;;;4979572;28;90054;-49
2023/04/12 04:53:07;;;;;;;95.43;52.65;;;15.20;72.90;;;;;;4981172;28;89820;-55
2023/04/12 04:55:32;;;;;;;94.28;52.67;;;15.20;72.90;;;;;;4980657;28;88835;-45
2023/04/12 04:57:58;;;;;;;96.82;52.72;;;15.20;73.00;;;;;;4973949;28;89473;-52
2023/04/12 05:00:24;;;;;;;95.00;52.38;;;15.20;73.20;;;;;;4977244;28;91705;-55
2023/04/12 05:02:50;;;;;;;96.10;52.65;;;15.20;73.30;;;;;;4978985;28;90602;-52
2023/04/12 05:05:16;;;;;;;95.97;52.42;;;15.20;73.60;;;;;;4972552;28;95664;-51
2023/04/12 05:07:43;;;;;;;95.93;52.22;;;15.10;73.50;;;;;;4974148;28;89350;-55
2023/04/12 05:10:09;;;;;;;94.45;52.38;;;15.10;73.90;;;;;;4975440;28;89812;-46
2023/04/12 05:12:36;;;;;;;96.38;52.92;;;15.20;74.10;;;;;;4955612;28;90650;-51
2023/04/12 05:15:02;;;;;;;97.15;52.63;;;15.10;73.90;;;;;;4968648;28;89810;-51
2023/04/12 05:17:28;;;;;;;94.13;52.47;;;15.20;74.10;;;;;;4976083;28;89948;-51
2023/04/12 05:19:54;;;;;;;98.25;52.65;;;15.10;74.10;;;;;;4979154;28;88965;-53
2023/04/12 05:22:20;;;;;;;94.53;52.33;;;15.10;74.10;;;;;;4976570;28;90155;-54
2023/04/12 05:24:50;;;;;;;95.22;52.50;;;15.10;74.00;;;;;;4960040;28;91490;-51
2023/04/12 05:27:16;;;;;;;95.30;52.53;;;15.10;73.80;;;;;;4973677;28;91638;-52
2023/04/12 05:29:45;;;;;;;94.38;52.50;;;15.10;74.10;;;;;;4951166;28;89700;-50
2023/04/12 05:32:11;;;;;;;97.55;52.70;;;15.10;74.10;;;;;;4957471;28;89862;-49
2023/04/12 05:34:37;;;;;;;97.20;52.70;;;15.10;74.40;;;;;;4963330;28;89968;-54
2023/04/12 05:37:03;;;;;;;94.15;52.42;;;15.10;74.60;;;;;;4957560;28;89815;-49
2023/04/12 05:39:30;;;;;;;96.32;52.38;;;15.10;74.50;;;;;;4960168;28;90256;-53
2023/04/12 05:41:56;;;;;;;96.18;52.70;;;15.10;74.40;;;;;;4956145;28;90652;-55
2023/04/12 05:44:21;;;;;;;95.00;52.50;;;15.10;74.60;;;;;;4958443;28;90685;-53
2023/04/12 05:46:47;;;;;;;97.03;52.50;;;15.10;74.50;;;;;;4960787;28;89503;-55
2023/04/12 05:49:13;;;;;;;94.00;52.22;;;15.10;74.50;;;;;;4961285;28;90094;-55
2023/04/12 05:51:38;;;;;;;96.95;52.80;;;15.10;74.60;;;;;;4958385;28;91036;-54
2023/04/12 05:54:07;;;;;;;95.72;52.47;;;15.10;74.40;;;;;;4962794;28;89822;-49
2023/04/12 05:56:33;;;;;;;96.82;52.10;;;15.10;74.50;;;;;;4961597;28;90030;-51
2023/04/12 05:59:02;;;;;;;94.93;52.53;;;15.10;74.50;;;;;;4962689;28;89595;-51
2023/04/12 06:01:30;;;;;;;95.30;52.55;;;15.10;74.60;;;;;;4955984;28;89436;-48
2023/04/12 06:03:56;;;;;;;95.80;52.85;;;15.10;74.60;;;;;;4956175;28;89792;-53
2023/04/12 06:06:22;;;;;;;94.95;52.33;;;15.10;74.60;;;;;;4960436;28;89383;-50
2023/04/12 06:08:48;;;;;;;94.95;52.17;;;15.10;74.70;;;;;;4958912;28;88828;-52
2023/04/12 06:11:15;;;;;;;96.43;52.92;;;15.00;74.70;;;;;;4962910;28;90000;-55
2023/04/12 06:13:40;;;;;;;95.40;52.70;;;15.10;74.80;;;;;;4960542;28;89912;-53
2023/04/12 06:16:06;;;;;;;95.40;52.45;;;15.00;74.60;;;;;;4958148;28;91171;-51
2023/04/12 06:18:32;;;;;;;94.68;52.42;;;15.00;74.60;;;;;;4962818;28;89600;-52
2023/04/12 06:20:59;;;;;;;94.85;52.70;;;15.10;74.70;;;;;;4955516;28;90030;-55
2023/04/12 06:23:24;;;;;;;96.53;52.58;;;15.00;74.60;;;;;;4961905;28;89313;-45
2023/04/12 06:25:52;;;;;;;96.88;52.33;;;15.00;74.70;;;;;;4967273;28;89375;-51
2023/04/12 06:28:17;;;;;;;96.30;52.45;;;15.00;74.60;;;;;;4957992;28;89743;-49
2023/04/12 06:30:43;;;;;;;95.13;52.92;;;15.10;74.70;;;;;;4962039;28;91648;-48
2023/04/12 06:33:10;;;;;;;99.78;53.42;;;15.00;74.50;;;;;;4959205;28;90195;-56
2023/04/12 06:35:35;;;;;;;99.60;53.15;;;15.10;75.30;;;;;;4972161;28;90298;-47
2023/04/12 06:38:01;;;;;;;100.63;53.38;;;15.10;74.90;;;;;;4985177;28;89825;-49
2023/04/12 06:40:27;;;;;;;103.68;53.83;;;15.10;75.30;;;;;;4980163;28;90650;-54
2023/04/12 06:42:52;;;;;;;103.95;54.13;;;15.10;75.80;;;;;;4978867;28;91675;-52
2023/04/12 06:45:18;;;;;;;99.50;54.17;;;15.10;76.30;;;;;;4983192;28;89455;-45
2023/04/12 06:47:44;;;;;;;101.18;54.38;;;15.20;76.60;;;;;;4978762;28;91482;-51
2023/04/12 06:50:10;;;;;;;102.32;54.65;;;15.10;76.70;;;;;;4979766;28;90047;-47
2023/04/12 06:52:35;;;;;;;102.07;53.80;;;15.20;76.70;;;;;;4968360;28;95088;-58
2023/04/12 06:55:01;;;;;;;102.53;54.63;;;15.20;76.90;;;;;;4970999;28;89849;-51
2023/04/12 06:57:27;;;;;;;103.72;54.90;;;15.20;77.00;;;;;;4977183;28;88809;-46
2023/04/12 06:59:52;;;;;;;103.20;54.42;;;15.20;76.90;;;;;;4976229;28;90095;-59
2023/04/12 07:02:18;;;;;;;100.90;54.25;;;15.20;77.00;;;;;;4977383;28;90255;-54
2023/04/12 07:04:44;;;;;;;99.88;53.88;;;15.20;76.90;;;;;;4981215;28;90445;-49
2023/04/12 07:07:09;;;;;;;104.60;55.08;;;15.20;76.90;;;;;;4980211;28;89846;-46
2023/04/12 07:09:35;;;;;;;100.63;54.47;;;15.20;76.90;;;;;;4975622;28;89350;-45
2023/04/12 07:12:04;;;;;;;103.07;54.15;;;15.20;76.90;;;;;;4976760;28;89688;-46
2023/04/12 07:14:29;;;;;;;101.10;54.67;;;15.20;76.90;;;;;;4978856;28;89553;-42
2023/04/12 07:16:55;;;;;;;102.32;54.47;;;15.20;76.90;;;;;;4978349;28;89664;-56
2023/04/12 07:19:20;;;;;;;101.43;54.60;;;15.30;76.80;;;;;;4979289;28;89948;-43
2023/04/12 07:21:46;;;;;;;100.93;54.75;;;15.30;76.60;;;;;;4981052;28;90449;-46
2023/04/12 07:24:12;;;;;;;100.47;54.72;;;15.30;76.70;;;;;;4976249;28;90606;-56
2023/04/12 07:26:37;;;;;;;100.78;54.45;;;15.30;76.50;;;;;;4983033;28;95079;-48
2023/04/12 07:29:03;;;;;;;98.70;54.05;;;15.30;76.40;;;;;;4982325;28;90862;-51
2023/04/12 07:31:31;;;;;;;100.85;54.33;;;15.30;76.20;;;;;;4973653;28;90265;-51
2023/04/12 07:33:57;;;;;;;100.80;54.10;;;15.30;76.10;;;;;;4978835;28;90203;-49
2023/04/12 07:36:23;;;;;;;102.95;54.42;;;15.30;76.50;;;;;;4982072;28;89829;-44
2023/04/12 07:38:53;;;;;;;102.63;54.30;;;15.30;76.50;;;;;;4976312;28;90516;-47
2023/04/12 07:41:20;;;;;;;105.07;54.03;;;15.30;76.50;;;;;;4976855;28;92422;-50
2023/04/12 07:43:46;;;;;;;102.53;54.35;;;15.30;76.40;;;;;;4979427;28;90697;-45
2023/04/12 07:46:11;;;;;;;103.40;54.47;;;15.30;76.30;;;;;;4978549;28;90484;-42
2023/04/12 07:48:37;;;;;;;99.35;54.40;;;15.30;76.30;;;;;;4977575;28;90717;-45
2023/04/12 07:51:03;;;;;;;102.65;54.85;;;15.30;77.00;;;;;;4982121;28;90136;-40
2023/04/12 07:53:30;;;;;;;100.75;54.38;;;15.40;76.30;;;;;;4981746;28;91145;-48
2023/04/12 07:55:55;;;;;;;102.85;54.55;;;15.40;76.20;;;;;;4978474;28;89765;-51
2023/04/12 07:58:22;;;;;;;102.60;54.17;;;15.30;76.10;;;;;;4981022;28;89400;-40
2023/04/12 08:00:49;;;;;;;103.35;54.20;;;15.30;76.00;;;;;;4977331;28;91387;-46
2023/04/12 08:03:17;;;;;;;99.70;54.38;;;15.40;76.00;;;;;;4979653;28;89934;-43
2023/04/12 08:05:43;;;;;;;107.50;54.55;;;15.40;76.10;;;;;;4978972;28;90349;-42
2023/04/12 08:08:10;;;;;;;102.30;54.08;;;15.40;76.00;;;;;;4983316;28;89821;-43
2023/04/12 08:10:37;;;;;;;99.28;53.72;;;15.40;76.00;;;;;;4981272;28;89539;-44
2023/04/12 08:13:04;;;;;;;101.28;53.55;;;15.40;75.90;;;;;;4979671;28;89902;-45
2023/04/12 08:15:30;;;;;;;101.80;54.40;;;15.40;75.90;;;;;;4978487;28;89849;-43
2023/04/12 08:17:55;;;;;;;100.50;54.00;;;15.40;75.90;;;;;;4979270;28;91013;-44
2023/04/12 08:20:21;;;;;;;100.32;53.78;;;15.40;75.90;;;;;;4977979;28;90823;-43
2023/04/12 08:22:48;;;;;;;102.07;53.97;;;15.50;75.70;;;;;;4980771;28;89837;-45
2023/04/12 08:25:14;;;;;;;100.25;53.83;;;15.40;75.60;;;;;;4980542;28;89848;-42
2023/04/12 08:27:44;;;;;;;99.95;53.72;;;15.50;75.60;;;;;;4979470;28;95109;-41
2023/04/12 08:30:10;;;;;;;99.13;53.65;;;15.50;75.40;;;;;;4976498;28;89864;-41
2023/04/12 08:32:36;;;;;;;103.57;54.22;;;15.50;75.40;;;;;;4978859;28;89515;-47
2023/04/12 08:35:06;;;;;;;103.35;54.22;;;15.50;75.10;;;;;;4976153;28;88767;-41
2023/04/12 08:37:35;;;;;;;102.50;54.35;;;15.50;75.00;;;;;;4974302;28;90406;-49
2023/04/12 08:40:06;;;;;;;103.05;53.92;;;15.50;75.20;;;;;;4974958;28;90143;-44
2023/04/12 08:42:35;;;;;;;98.25;53.63;;;15.60;75.00;;;;;;4977078;28;95462;-40
2023/04/12 08:45:09;;;;;;;99.00;54.38;;;15.60;75.10;;;;;;4981391;28;89538;-43
2023/04/12 08:47:37;;;;;;;101.60;53.85;;;15.50;75.10;;;;;;4979898;28;89503;-45
2023/04/12 08:50:08;;;;;;;102.18;54.05;;;15.60;75.00;;;;;;4978771;28;90033;-44
2023/04/12 08:52:34;;;;;;;99.18;53.90;;;15.60;75.00;;;;;;4977181;28;90652;-42
2023/04/12 08:55:06;;;;;;;99.65;53.65;;;15.60;75.00;;;;;;4974733;28;90633;-40
2023/04/12 08:57:34;;;;;;;102.45;53.92;;;15.60;74.90;;;;;;4977287;28;90665;-44
2023/04/12 09:00:02;;;;;;;99.13;53.97;;;15.60;74.90;;;;;;4976065;28;90659;-43
2023/04/12 09:02:28;;;;;;;99.00;53.95;;;15.60;74.90;;;;;;4980587;28;90158;-46
2023/04/12 09:04:53;;;;;;;102.43;54.50;;;15.60;74.90;;;;;;4977282;28;89717;-45
2023/04/12 09:07:22;;;;;;;99.85;54.10;;;15.50;74.80;;;;;;4978839;28;91170;-40
2023/04/12 09:09:49;;;;;;;102.43;54.17;;;15.60;74.80;;;;;;4978491;28;90384;-44
2023/04/12 09:12:15;;;;;;;102.45;54.10;;;15.60;74.50;;;;;;4976657;28;90375;-41
2023/04/12 09:14:43;;;;;;;103.03;54.30;;;15.60;74.60;;;;;;4980290;28;90211;-49
2023/04/12 09:17:21;;;;;;;101.07;54.22;;;15.60;74.60;;;;;;4977623;28;90132;-44
2023/04/12 09:19:47;;;;;;;99.90;54.00;;;15.60;74.60;;;;;;4973955;28;89968;-45
2023/04/12 09:22:12;;;;;;;101.15;54.15;;;15.60;74.60;;;;;;4976629;28;90314;-43
2023/04/12 09:24:50;;;;;;;99.57;54.17;;;15.60;74.50;;;;;;4979826;28;89345;-41
2023/04/12 09:27:19;;;;;;;98.85;54.22;;;15.60;75.20;;;;;;4974336;28;90030;-47
2023/04/12 09:29:50;;;;;;;98.50;54.03;;;15.60;74.40;;;;;;4977936;28;89489;-45
2023/04/12 09:32:26;;;;;;;97.50;53.83;;;15.60;74.20;;;;;;4976553;28;91976;-45
2023/04/12 09:34:57;;;;;;;99.15;53.95;;;15.60;74.30;;;;;;4975210;28;89757;-41
2023/04/12 09:37:23;;;;;;;100.17;53.93;;;15.60;74.20;;;;;;4977740;28;89940;-43
2023/04/12 09:39:59;;;;;;;98.63;54.15;;;15.60;74.10;;;;;;4979314;28;90427;-49
2023/04/12 09:42:25;;;;;;;100.97;54.08;;;15.60;74.20;;;;;;4977699;28;89681;-43
2023/04/12 09:45:12;;;;;;;100.47;53.85;;;15.60;74.20;;;;;;4981222;28;89129;-43
2023/04/12 09:47:39;;;;;;;99.53;53.92;;;15.60;74.10;;;;;;4979117;28;89997;-43
2023/04/12 09:50:08;;;;;;;100.43;53.85;;;15.60;74.10;;;;;;4976942;28;89047;-46
2023/04/12 09:52:38;;;;;;;100.55;53.92;;;15.70;74.10;;;;;;4977311;28;90578;-47
2023/04/12 09:55:10;;;;;;;101.18;54.15;;;15.70;73.90;;;;;;4974210;28;90875;-46
2023/04/12 09:57:43;;;;;;;99.78;54.17;;;15.70;74.30;;;;;;4971107;28;91125;-44
2023/04/12 10:00:18;;;;;;;98.80;53.83;;;15.70;74.60;;;;;;4975712;28;89929;-47
2023/04/12 10:02:47;;;;;;;99.63;53.90;;;15.70;73.70;;;;;;4980839;28;90084;-44
2023/04/12 10:05:15;;;;;;;98.63;53.88;;;15.70;73.20;;;;;;4984494;28;89831;-46
2023/04/12 10:07:42;;;;;;;100.38;53.97;;;15.70;72.80;;;;;;4975410;28;89433;-46
2023/04/12 10:10:13;;;;;;;100.45;53.75;;;15.80;72.60;;;;;;4981086;28;91262;-44
2023/04/12 10:12:40;;;;;;;102.53;54.20;;;15.70;72.30;;;;;;4976951;28;89728;-40
2023/04/12 10:15:12;;;;;;;101.32;53.95;;;15.70;72.40;;;;;;4979970;28;88893;-40
2023/04/12 10:17:49;;;;;;;99.95;53.88;;;15.80;72.80;;;;;;4981936;28;90566;-42
2023/04/12 10:20:17;;;;;;;101.82;53.67;;;15.80;72.50;;;;;;4981982;28;89254;-45
2023/04/12 10:22:47;;;;;;;100.15;53.67;;;15.80;72.50;;;;;;4978783;28;91424;-42
2023/04/12 10:25:15;;;;;;;101.05;54.30;;;15.80;72.20;;;;;;4978103;28;90521;-44
2023/04/12 10:27:42;;;;;;;98.55;53.83;;;15.80;72.10;;;;;;4979135;28;89500;-42
2023/04/12 10:30:30;;;;;;;98.65;53.70;;;15.80;72.00;;;;;;4980263;28;90792;-50
2023/04/12 10:33:02;;;;;;;101.38;53.60;;;15.80;71.90;;;;;;4978900;28;95366;-45
2023/04/12 10:35:28;;;;;;;101.88;53.65;;;15.80;71.90;;;;;;4978021;28;90221;-40
2023/04/12 10:38:01;;;;;;;99.22;53.85;;;15.80;71.70;;;;;;4979969;28;94543;-40
2023/04/12 10:40:31;;;;;;;98.60;53.90;;;15.80;71.30;;;;;;4974738;28;89256;-40
2023/04/12 10:43:21;;;;;;;99.28;53.63;;;15.80;71.50;;;;;;4973266;28;90172;-41
2023/04/12 10:45:51;;;;;;;100.07;54.08;;;15.80;71.50;;;;;;4978863;28;90177;-37
2023/04/12 10:48:33;;;;;;;100.07;53.25;;;15.80;71.40;;;;;;4976077;28;91576;-45
2023/04/12 10:51:25;;;;;;;99.38;53.45;;;15.80;71.40;;;;;;4980744;28;90270;-50
2023/04/12 10:53:52;;;;;;;97.97;53.78;;;15.80;71.40;;;;;;4966475;28;89437;-48
2023/04/12 10:56:30;;;;;;;98.97;53.65;;;15.80;71.70;;;;;;4981710;28;89829;-49
2023/04/12 10:59:11;;;;;;;98.70;53.72;;;15.90;71.60;;;;;;4979058;28;89380;-43
2023/04/12 11:01:37;;;;;;;97.68;53.58;;;15.90;71.80;;;;;;4977280;28;90669;-50
2023/04/12 11:04:07;;;;;;;97.57;53.33;;;15.90;71.60;;;;;;4978340;28;89822;-54
2023/04/12 11:06:45;;;;;;;100.28;53.63;;;15.80;71.40;;;;;;4974910;28;89936;-47
2023/04/12 11:09:24;;;;;;;98.55;53.83;;;15.90;71.50;;;;;;4975533;28;89670;-52
2023/04/12 11:12:12;;;;;;;98.95;53.25;;;15.90;71.50;;;;;;4980806;28;89554;-52
2023/04/12 11:14:44;;;;;;;97.93;53.50;;;15.80;71.30;;;;;;4984334;28;91024;-39
2023/04/12 11:17:15;;;;;;;97.90;53.53;;;15.90;71.40;;;;;;4979327;28;89664;-44
2023/04/12 11:19:41;;;;;;;102.97;53.60;;;15.90;71.30;;;;;;4975959;28;90117;-40
2023/04/12 11:22:13;;;;;;;101.55;53.95;;;15.90;71.20;;;;;;4971807;28;89840;-43
2023/04/12 11:24:50;;;;;;;99.50;53.25;;;15.90;71.40;;;;;;4959537;28;90026;-44
2023/04/12 11:27:53;;;;;;;100.20;54.03;;;15.90;70.80;;;;;;5004730;27;83176;-49
2023/04/12 11:30:19;;;;;;;100.35;54.22;;;15.90;71.50;;;;;;4992653;28;85518;-45
2023/04/12 11:32:46;;;;;;;98.68;53.35;;;15.90;71.50;;;;;;4992483;28;86185;-42
2023/04/12 11:35:15;;;;;;;99.18;53.63;;;16.00;72.00;;;;;;4992864;28;85090;-48
2023/04/12 11:37:40;;;;;;;99.68;54.05;;;16.00;71.80;;;;;;4989986;28;86208;-41
2023/04/12 11:40:10;;;;;;;100.57;54.10;;;16.00;71.50;;;;;;4996540;27;85471;-42
2023/04/12 11:42:38;;;;;;;101.45;53.83;;;16.00;71.50;;;;;;4991963;28;85178;-41
2023/04/12 11:45:04;;;;;;;99.05;54.30;;;16.00;71.40;;;;;;4984258;28;85559;-43
2023/04/12 11:47:30;;;;;;;102.88;53.78;;;16.00;71.20;;;;;;4989178;28;85602;-40
2023/04/12 11:49:57;;;;;;;101.47;53.35;;;16.00;71.10;;;;;;4999373;28;85095;-47
2023/04/12 11:52:31;;;;;;;101.93;53.92;;;16.00;71.20;;;;;;4998779;28;85778;-45
2023/04/12 11:55:00;;;;;;;100.15;54.15;;;16.00;71.90;;;;;;4989278;28;85351;-49
2023/04/12 11:57:27;;;;;;;99.55;53.75;;;16.10;71.80;;;;;;4993042;28;85597;-47
2023/04/12 11:59:58;;;;;;;100.82;54.22;;;16.00;71.00;;;;;;4999823;28;85161;-46
2023/04/12 12:02:25;;;;;;;100.07;53.97;;;16.10;70.90;;;;;;4992936;28;85641;-51
2023/04/12 12:04:51;;;;;;;101.82;53.70;;;16.10;70.50;;;;;;4989657;28;85313;-44
2023/04/12 12:07:18;;;;;;;100.28;53.78;;;16.10;69.50;;;;;;4997207;28;87306;-47
2023/04/12 12:09:45;;;;;;;101.47;53.63;;;16.00;70.40;;;;;;4993142;28;85564;-50
2023/04/12 12:12:12;;;;;;;101.07;53.75;;;16.10;71.00;;;;;;4995005;28;85520;-52
2023/04/12 12:14:37;;;;;;;99.03;53.22;;;16.10;70.60;;;;;;4994175;28;85578;-47
2023/04/12 12:17:11;;;;;;;101.07;53.72;;;16.10;70.40;;;;;;4988061;28;85218;-48
2023/04/12 12:19:42;;;;;;;101.10;53.85;;;16.10;70.50;;;;;;4989034;28;84909;-54
2023/04/12 12:22:18;;;;;;;99.95;53.72;;;16.10;70.10;;;;;;4996403;28;87783;-49
2023/04/12 12:24:58;;;;;;;100.75;53.83;;;16.10;70.10;;;;;;4992266;28;85521;-48
2023/04/12 12:27:36;;;;;;;99.28;53.40;;;16.10;70.20;;;;;;4993667;28;85288;-46
2023/04/12 12:30:03;;;;;;;100.00;53.55;;;16.10;70.50;;;;;;4993210;28;86783;-52